createdAt,value
2023-05-21T00:00:43.307Z,4.70
2023-05-21T00:03:14.002Z,3.08
2023-05-21T00:05:41.069Z,3.85
2023-05-21T00:08:08.379Z,3.90
2023-05-21T00:10:35.143Z,3.33
2023-05-21T00:13:02.045Z,3.90
2023-05-21T00:15:28.863Z,3.13
2023-05-21T00:17:55.726Z,4.13
2023-05-21T00:20:23.237Z,3.25
2023-05-21T00:22:50.022Z,3.50
2023-05-21T00:25:16.786Z,3.45
2023-05-21T00:27:43.613Z,3.28
2023-05-21T00:30:10.626Z,3.83
2023-05-21T00:32:37.688Z,5.05
2023-05-21T00:35:04.778Z,4.00
2023-05-21T00:37:34.056Z,3.90
2023-05-21T00:40:02.204Z,3.50
2023-05-21T00:42:30.507Z,3.55
2023-05-21T00:44:57.709Z,2.97
2023-05-21T00:47:26.859Z,5.00
2023-05-21T00:49:54.817Z,2.90
2023-05-21T00:52:22.978Z,3.90
2023-05-21T00:54:50.810Z,5.78
2023-05-21T00:57:22.213Z,5.10
2023-05-21T00:59:53.204Z,3.17
2023-05-21T01:02:20.140Z,4.72
2023-05-21T01:04:47.019Z,3.35
2023-05-21T01:07:14.542Z,5.50
2023-05-21T01:09:42.508Z,5.20
2023-05-21T01:12:10.004Z,4.22
2023-05-21T01:14:37.903Z,3.05
2023-05-21T01:17:06.418Z,5.30
2023-05-21T01:19:35.393Z,4.07
2023-05-21T01:22:08.967Z,4.43
2023-05-21T01:24:35.922Z,4.20
2023-05-21T01:27:06.534Z,3.50
2023-05-21T01:29:33.731Z,6.03
2023-05-21T01:32:18.459Z,5.70
2023-05-21T01:34:58.089Z,4.30
2023-05-21T01:37:32.602Z,4.43
2023-05-21T01:40:23.123Z,4.47
2023-05-21T01:42:49.952Z,5.00
2023-05-21T01:45:17.624Z,3.83
2023-05-21T01:47:47.991Z,4.03
2023-05-21T01:50:16.182Z,3.75
2023-05-21T01:53:05.775Z,5.40
2023-05-21T01:55:32.949Z,5.10
2023-05-21T01:58:02.296Z,5.40
2023-05-21T02:00:29.524Z,5.97
2023-05-21T02:02:56.657Z,4.93
2023-05-21T02:05:23.648Z,5.38
2023-05-21T02:07:51.981Z,4.32
2023-05-21T02:10:19.224Z,9.13
2023-05-21T02:12:46.212Z,3.80
2023-05-21T02:15:14.338Z,4.65
2023-05-21T02:17:42.350Z,4.20
2023-05-21T02:20:12.088Z,4.90
2023-05-21T02:22:40.630Z,4.10
2023-05-21T02:25:08.901Z,5.35
2023-05-21T02:27:36.647Z,4.75
2023-05-21T02:30:05.604Z,5.95
2023-05-21T02:32:32.394Z,3.95
2023-05-21T02:34:59.918Z,5.70
2023-05-21T02:37:33.656Z,4.35
2023-05-21T02:40:03.770Z,4.55
2023-05-21T02:42:30.540Z,5.25
2023-05-21T02:44:57.282Z,6.18
2023-05-21T02:47:25.488Z,3.17
2023-05-21T02:49:53.465Z,9.23
2023-05-21T02:52:23.850Z,5.05
2023-05-21T02:54:52.345Z,5.88
2023-05-21T02:57:19.217Z,7.47
2023-05-21T02:59:45.991Z,5.45
2023-05-21T03:02:12.798Z,5.45
2023-05-21T03:04:46.356Z,6.68
2023-05-21T03:07:14.772Z,6.43
2023-05-21T03:09:42.373Z,5.32
2023-05-21T03:12:10.223Z,8.38
2023-05-21T03:14:37.749Z,5.93
2023-05-21T03:17:06.091Z,6.90
2023-05-21T03:19:36.699Z,5.60
2023-05-21T03:22:04.815Z,7.38
2023-05-21T03:24:35.182Z,4.65
2023-05-21T03:27:02.251Z,4.82
2023-05-21T03:29:29.077Z,4.22
2023-05-21T03:31:56.819Z,6.03
2023-05-21T03:34:24.034Z,4.50
2023-05-21T03:36:51.036Z,6.60
2023-05-21T03:39:19.102Z,5.10
2023-05-21T03:41:45.776Z,9.25
2023-05-21T03:44:32.429Z,5.05
2023-05-21T03:47:16.075Z,4.45
2023-05-21T03:49:42.935Z,7.20
2023-05-21T03:52:09.745Z,6.45
2023-05-21T03:54:36.634Z,5.10
2023-05-21T03:57:09.529Z,5.05
2023-05-21T03:59:36.651Z,4.28
2023-05-21T04:02:05.177Z,5.40
2023-05-21T04:04:33.646Z,5.55
2023-05-21T04:07:00.917Z,6.18
2023-05-21T04:09:27.964Z,6.78
2023-05-21T04:11:54.691Z,5.50
2023-05-21T04:14:22.229Z,6.38
2023-05-21T04:16:51.381Z,8.10
2023-05-21T04:19:18.165Z,6.97
2023-05-21T04:21:45.066Z,5.68
2023-05-21T04:24:13.469Z,5.90
2023-05-21T04:26:49.882Z,5.90
2023-05-21T04:29:18.060Z,6.65
2023-05-21T04:31:45.182Z,5.18
2023-05-21T04:34:13.968Z,5.95
2023-05-21T04:36:41.735Z,5.90
2023-05-21T04:39:08.507Z,8.05
2023-05-21T04:41:36.675Z,4.85
2023-05-21T04:44:03.508Z,5.35
2023-05-21T04:46:32.316Z,6.05
2023-05-21T04:49:04.062Z,6.22
2023-05-21T04:51:31.502Z,7.25
2023-05-21T04:53:58.742Z,8.60
2023-05-21T04:56:26.933Z,4.60
2023-05-21T04:58:54.260Z,5.30
2023-05-21T05:01:26.866Z,9.02
2023-05-21T05:03:54.030Z,7.72
2023-05-21T05:06:21.495Z,7.18
2023-05-21T05:08:48.981Z,4.82
2023-05-21T05:11:16.652Z,6.38
2023-05-21T05:13:43.864Z,8.05
2023-05-21T05:16:11.235Z,7.80
2023-05-21T05:18:38.208Z,9.68
2023-05-21T05:21:05.175Z,5.30
2023-05-21T05:23:32.176Z,6.32
2023-05-21T05:25:58.941Z,6.20
2023-05-21T05:28:25.955Z,8.73
2023-05-21T05:30:52.756Z,5.20
2023-05-21T05:33:23.711Z,8.05
2023-05-21T05:35:50.468Z,5.25
2023-05-21T05:38:17.495Z,5.25
2023-05-21T05:40:44.661Z,6.22
2023-05-21T05:43:11.533Z,8.02
2023-05-21T05:45:38.810Z,5.97
2023-05-21T05:48:11.963Z,6.15
2023-05-21T05:50:38.816Z,5.93
2023-05-21T05:53:07.179Z,7.40
2023-05-21T05:55:34.386Z,5.32
2023-05-21T05:58:01.452Z,5.13
2023-05-21T06:00:28.385Z,8.63
2023-05-21T06:02:56.328Z,4.25
2023-05-21T06:05:23.351Z,6.68
2023-05-21T06:07:50.974Z,8.98
2023-05-21T06:10:20.676Z,6.95
2023-05-21T06:12:47.653Z,5.80
2023-05-21T06:15:16.415Z,5.07
2023-05-21T06:17:43.260Z,7.18
2023-05-21T06:20:12.281Z,8.65
2023-05-21T06:22:39.264Z,7.18
2023-05-21T06:25:08.188Z,9.32
2023-05-21T06:27:35.762Z,6.40
2023-05-21T06:30:04.716Z,7.05
2023-05-21T06:32:31.895Z,6.72
2023-05-21T06:34:58.749Z,5.68
2023-05-21T06:37:26.647Z,6.53
2023-05-21T06:39:54.229Z,11.60
2023-05-21T06:42:21.309Z,9.10
2023-05-21T06:45:13.862Z,9.35
2023-05-21T06:47:43.793Z,6.57
2023-05-21T06:50:10.855Z,7.65
2023-05-21T06:52:37.572Z,5.88
2023-05-21T06:55:04.685Z,4.97
2023-05-21T06:57:50.524Z,7.38
2023-05-21T07:00:17.775Z,7.65
2023-05-21T07:02:44.594Z,8.32
2023-05-21T07:05:11.468Z,6.25
2023-05-21T07:07:38.144Z,8.40
2023-05-21T07:10:05.816Z,6.13
2023-05-21T07:12:32.759Z,7.47
2023-05-21T07:14:59.564Z,7.68
2023-05-21T07:17:27.014Z,6.10
2023-05-21T07:19:53.883Z,7.63
2023-05-21T07:22:20.998Z,7.22
2023-05-21T07:24:47.670Z,6.32
2023-05-21T07:27:25.393Z,8.07
2023-05-21T07:29:53.997Z,8.75
2023-05-21T07:32:21.667Z,6.63
2023-05-21T07:34:48.651Z,6.22
2023-05-21T07:37:15.602Z,8.07
2023-05-21T07:39:42.321Z,6.32
2023-05-21T07:42:10.791Z,7.97
2023-05-21T07:44:37.704Z,9.13
2023-05-21T07:47:04.832Z,7.68
2023-05-21T07:49:32.255Z,8.45
2023-05-21T07:51:59.223Z,6.32
2023-05-21T07:54:26.269Z,8.15
2023-05-21T07:56:53.089Z,7.15
2023-05-21T07:59:46.050Z,8.48
2023-05-21T08:02:13.250Z,8.48
2023-05-21T08:04:41.493Z,7.32
2023-05-21T08:07:10.708Z,6.97
2023-05-21T08:09:37.485Z,7.25
2023-05-21T08:12:04.832Z,8.35
2023-05-21T08:14:32.030Z,8.52
2023-05-21T08:16:59.559Z,6.63
2023-05-21T08:19:26.362Z,12.10
2023-05-21T08:21:53.265Z,8.30
2023-05-21T08:24:21.444Z,7.93
2023-05-21T08:26:50.507Z,7.07
2023-05-21T08:29:18.059Z,9.88
2023-05-21T08:31:45.077Z,7.50
2023-05-21T08:34:12.059Z,9.75
2023-05-21T08:36:46.974Z,7.78
2023-05-21T08:39:36.944Z,8.82
2023-05-21T08:42:37.028Z,10.07
2023-05-21T08:45:10.916Z,12.38
2023-05-21T08:47:37.775Z,14.15
2023-05-21T08:50:09.375Z,9.60
2023-05-21T08:52:36.473Z,9.13
2023-05-21T08:55:07.502Z,10.13
2023-05-21T08:57:36.743Z,9.55
2023-05-21T09:00:07.318Z,11.60
2023-05-21T09:02:40.536Z,8.73
2023-05-21T09:05:09.464Z,10.95
2023-05-21T09:07:47.017Z,13.95
2023-05-21T09:10:39.634Z,10.73
2023-05-21T09:13:07.962Z,8.30
2023-05-21T09:15:35.381Z,9.70
2023-05-21T09:18:02.542Z,9.40
2023-05-21T09:20:46.286Z,12.15
2023-05-21T09:23:17.720Z,12.32
2023-05-21T09:25:47.481Z,15.77
2023-05-21T09:28:21.334Z,9.90
2023-05-21T09:30:52.149Z,11.80
2023-05-21T09:33:26.457Z,11.98
2023-05-21T09:35:53.456Z,13.23
2023-05-21T09:38:23.696Z,8.95
2023-05-21T09:40:51.107Z,10.07
2023-05-21T09:43:18.287Z,11.32
2023-05-21T09:45:53.170Z,10.57
2023-05-21T09:48:34.562Z,8.70
2023-05-21T09:51:11.490Z,9.27
2023-05-21T09:53:58.720Z,11.93
2023-05-21T09:56:30.659Z,12.43
2023-05-21T09:59:00.363Z,12.70
2023-05-21T10:01:28.106Z,9.38
2023-05-21T10:03:57.076Z,10.85
2023-05-21T10:06:29.122Z,10.82
2023-05-21T10:08:57.494Z,9.52
2023-05-21T10:11:27.201Z,10.30
2023-05-21T10:14:16.248Z,10.88
2023-05-21T10:16:44.330Z,11.75
2023-05-21T10:19:12.139Z,11.90
2023-05-21T10:21:39.812Z,9.90
2023-05-21T10:24:09.243Z,9.38
2023-05-21T10:26:38.285Z,9.48
2023-05-21T10:29:05.021Z,15.88
2023-05-21T10:31:33.034Z,10.57
2023-05-21T10:34:00.624Z,15.48
2023-05-21T10:36:31.665Z,10.82
2023-05-21T10:39:00.238Z,12.00
2023-05-21T10:41:30.658Z,10.60
2023-05-21T10:44:20.397Z,11.80
2023-05-21T10:46:59.433Z,11.80
2023-05-21T10:49:26.159Z,11.68
2023-05-21T10:52:12.267Z,10.07
2023-05-21T10:54:52.895Z,12.60
2023-05-21T10:57:44.520Z,14.07
2023-05-21T11:00:16.053Z,11.15
2023-05-21T11:02:43.138Z,10.82
2023-05-21T11:05:10.000Z,11.23
2023-05-21T11:07:59.008Z,9.55
2023-05-21T11:10:36.350Z,10.70
2023-05-21T11:13:13.485Z,12.95
2023-05-21T11:15:58.829Z,11.27
2023-05-21T11:18:37.867Z,9.90
2023-05-21T11:21:10.033Z,12.77
2023-05-21T11:23:58.686Z,12.75
2023-05-21T11:26:50.203Z,10.05
2023-05-21T11:29:17.777Z,15.15
2023-05-21T11:31:58.725Z,16.25
2023-05-21T11:34:28.642Z,11.88
2023-05-21T11:37:17.366Z,12.77
2023-05-21T11:39:48.609Z,10.15
2023-05-21T11:42:52.547Z,13.23
2023-05-21T11:45:21.119Z,12.82
2023-05-21T11:47:49.574Z,13.32
2023-05-21T11:50:17.205Z,11.40
2023-05-21T11:52:45.260Z,11.05
2023-05-21T11:55:13.265Z,10.98
2023-05-21T11:57:43.075Z,12.35
2023-05-21T12:00:15.477Z,12.95
2023-05-21T12:02:49.752Z,13.10
2023-05-21T12:05:16.643Z,12.73
2023-05-21T12:07:46.627Z,10.77
2023-05-21T12:10:13.474Z,14.82
2023-05-21T12:12:54.010Z,15.45
2023-05-21T12:15:22.705Z,18.02
2023-05-21T12:17:52.469Z,12.45
2023-05-21T12:20:19.891Z,13.38
2023-05-21T12:22:48.988Z,11.93
2023-05-21T12:25:19.853Z,17.40
2023-05-21T12:27:47.621Z,11.63
2023-05-21T12:30:14.830Z,12.07
2023-05-21T12:32:44.319Z,16.90
2023-05-21T12:35:21.649Z,17.13
2023-05-21T12:37:50.453Z,11.05
2023-05-21T12:40:17.824Z,14.65
2023-05-21T12:42:44.673Z,14.48
2023-05-21T12:45:11.756Z,12.60
2023-05-21T12:47:38.559Z,13.82
2023-05-21T12:50:11.599Z,11.30
2023-05-21T12:52:41.139Z,11.50
2023-05-21T12:55:10.285Z,11.15
2023-05-21T12:57:41.492Z,10.43
2023-05-21T13:00:10.137Z,12.57
2023-05-21T13:02:42.056Z,10.32
2023-05-21T13:05:15.290Z,12.70
2023-05-21T13:07:43.880Z,10.90
2023-05-21T13:10:12.194Z,11.18
2023-05-21T13:12:39.983Z,13.88
2023-05-21T13:15:08.213Z,13.75
2023-05-21T13:17:35.061Z,11.27
2023-05-21T13:20:12.675Z,10.50
2023-05-21T13:22:47.406Z,13.25
2023-05-21T13:25:15.984Z,13.50
2023-05-21T13:27:43.513Z,13.73
2023-05-21T13:30:13.721Z,11.85
2023-05-21T13:32:41.452Z,12.43
2023-05-21T13:35:09.859Z,15.43
2023-05-21T13:37:36.651Z,11.10
2023-05-21T13:40:04.637Z,14.00
2023-05-21T13:42:31.371Z,14.90
2023-05-21T13:44:58.300Z,11.60
2023-05-21T13:47:25.145Z,18.42
2023-05-21T13:49:52.114Z,14.23
2023-05-21T13:52:19.589Z,13.43
2023-05-21T13:54:46.300Z,13.13
2023-05-21T13:57:13.151Z,11.10
2023-05-21T13:59:40.997Z,10.48
2023-05-21T14:02:09.305Z,11.20
2023-05-21T14:04:38.990Z,12.75
2023-05-21T14:07:06.891Z,11.25
2023-05-21T14:09:34.517Z,13.70
2023-05-21T14:12:01.517Z,14.25
2023-05-21T14:14:28.241Z,12.63
2023-05-21T14:16:55.126Z,12.52
2023-05-21T14:19:22.005Z,12.23
2023-05-21T14:21:51.250Z,14.02
2023-05-21T14:24:18.055Z,13.73
2023-05-21T14:26:44.813Z,12.73
2023-05-21T14:29:11.543Z,12.55
2023-05-21T14:31:38.569Z,12.55
2023-05-21T14:34:07.779Z,12.18
2023-05-21T14:36:34.821Z,11.55
2023-05-21T14:39:01.633Z,12.00
2023-05-21T14:41:30.144Z,12.95
2023-05-21T14:43:56.896Z,15.32
2023-05-21T14:46:23.701Z,12.07
2023-05-21T14:48:50.675Z,18.02
2023-05-21T14:51:17.507Z,14.57
2023-05-21T14:53:44.250Z,11.88
2023-05-21T14:56:10.952Z,13.40
2023-05-21T14:58:37.606Z,12.65
2023-05-21T15:01:04.485Z,13.35
2023-05-21T15:03:31.608Z,13.32
2023-05-21T15:05:58.652Z,11.88
2023-05-21T15:08:25.724Z,11.93
2023-05-21T15:10:52.795Z,13.73
2023-05-21T15:13:21.234Z,10.63
2023-05-21T15:15:49.748Z,12.88
2023-05-21T15:18:16.561Z,14.05
2023-05-21T15:20:43.367Z,13.77
2023-05-21T15:23:16.839Z,14.43
2023-05-21T15:25:44.600Z,12.18
2023-05-21T15:28:14.004Z,14.32
2023-05-21T15:30:40.714Z,12.35
2023-05-21T15:33:07.456Z,13.52
2023-05-21T15:35:35.953Z,12.10
2023-05-21T15:38:03.151Z,13.27
2023-05-21T15:40:29.815Z,14.82
2023-05-21T15:42:56.541Z,12.93
2023-05-21T15:45:24.149Z,11.45
2023-05-21T15:47:50.896Z,13.13
2023-05-21T15:50:17.847Z,16.55
2023-05-21T15:52:44.577Z,10.57
2023-05-21T15:55:11.461Z,13.20
2023-05-21T15:57:38.251Z,12.40
2023-05-21T16:00:06.180Z,13.23
2023-05-21T16:02:35.434Z,13.85
2023-05-21T16:05:02.365Z,13.70
2023-05-21T16:07:29.160Z,14.50
2023-05-21T16:09:55.878Z,13.63
2023-05-21T16:12:22.707Z,10.50
2023-05-21T16:14:52.399Z,12.00
2023-05-21T16:17:19.845Z,12.52
2023-05-21T16:19:47.208Z,15.68
2023-05-21T16:22:14.071Z,13.07
2023-05-21T16:24:40.884Z,12.27
2023-05-21T16:27:07.537Z,12.70
2023-05-21T16:29:34.297Z,12.43
2023-05-21T16:32:01.074Z,12.32
2023-05-21T16:34:27.827Z,13.75
2023-05-21T16:36:54.538Z,13.93
2023-05-21T16:39:21.281Z,10.75
2023-05-21T16:41:47.995Z,11.63
2023-05-21T16:44:14.881Z,15.18
2023-05-21T16:46:41.625Z,11.82
2023-05-21T16:49:08.480Z,12.85
2023-05-21T16:51:35.314Z,14.40
2023-05-21T16:54:04.145Z,13.27
2023-05-21T16:56:31.772Z,11.65
2023-05-21T16:58:58.517Z,15.13
2023-05-21T17:01:25.511Z,13.85
2023-05-21T17:03:52.934Z,13.98
2023-05-21T17:06:20.014Z,13.88
2023-05-21T17:08:46.905Z,13.05
2023-05-21T17:11:13.613Z,14.43
2023-05-21T17:13:40.460Z,12.93
2023-05-21T17:16:07.270Z,13.43
2023-05-21T17:18:34.081Z,16.25
2023-05-21T17:21:00.729Z,15.57
2023-05-21T17:23:27.576Z,15.38
2023-05-21T17:25:54.295Z,12.50
2023-05-21T17:28:21.035Z,12.18
2023-05-21T17:30:49.696Z,12.68
2023-05-21T17:33:16.994Z,17.50
2023-05-21T17:35:43.925Z,11.93
2023-05-21T17:38:10.851Z,13.25
2023-05-21T17:40:37.669Z,13.60
2023-05-21T17:43:04.874Z,12.85
2023-05-21T17:45:31.913Z,13.65
2023-05-21T17:48:00.373Z,15.02
2023-05-21T17:50:28.060Z,19.42
2023-05-21T17:52:54.907Z,17.10
2023-05-21T17:55:21.654Z,14.85
2023-05-21T17:57:48.577Z,15.73
2023-05-21T18:00:15.446Z,16.25
2023-05-21T18:02:42.261Z,14.75
2023-05-21T18:05:09.202Z,14.00
2023-05-21T18:07:37.123Z,13.82
2023-05-21T18:10:04.167Z,13.77
2023-05-21T18:12:30.862Z,17.48
2023-05-21T18:14:57.592Z,14.35
2023-05-21T18:17:24.404Z,14.23
2023-05-21T18:19:51.171Z,11.80
2023-05-21T18:22:17.870Z,14.65
2023-05-21T18:24:44.609Z,17.58
2023-05-21T18:27:12.289Z,16.27
2023-05-21T18:29:38.987Z,14.70
2023-05-21T18:32:06.293Z,13.27
2023-05-21T18:34:33.204Z,13.93
2023-05-21T18:37:00.374Z,14.45
2023-05-21T18:39:27.928Z,12.45
2023-05-21T18:42:11.566Z,19.02
2023-05-21T18:44:39.870Z,15.00
2023-05-21T18:47:07.755Z,15.23
2023-05-21T18:49:35.810Z,13.35
2023-05-21T18:52:03.082Z,14.40
2023-05-21T18:54:29.755Z,15.25
2023-05-21T18:56:59.547Z,18.52
2023-05-21T18:59:27.127Z,16.20
2023-05-21T19:01:54.732Z,12.90
2023-05-21T19:04:21.849Z,14.30
2023-05-21T19:06:48.628Z,12.68
2023-05-21T19:09:15.352Z,16.50
2023-05-21T19:11:42.122Z,14.15
2023-05-21T19:14:08.838Z,14.95
2023-05-21T19:16:35.719Z,14.05
2023-05-21T19:19:03.238Z,12.57
2023-05-21T19:21:31.267Z,13.48
2023-05-21T19:23:58.361Z,14.07
2023-05-21T19:26:25.155Z,20.40
2023-05-21T19:28:53.847Z,13.75
2023-05-21T19:31:21.903Z,12.55
2023-05-21T19:33:49.119Z,13.88
2023-05-21T19:36:16.118Z,14.43
2023-05-21T19:38:50.050Z,14.73
2023-05-21T19:41:17.948Z,14.27
2023-05-21T19:43:45.792Z,13.05
2023-05-21T19:46:13.144Z,15.82
2023-05-21T19:48:40.000Z,12.05
2023-05-21T19:51:06.707Z,12.80
2023-05-21T19:53:33.520Z,16.05
2023-05-21T19:56:00.330Z,13.23
2023-05-21T19:58:29.420Z,15.60
2023-05-21T20:00:59.017Z,13.15
2023-05-21T20:03:26.734Z,15.80
2023-05-21T20:05:54.049Z,13.27
2023-05-21T20:08:21.258Z,14.65
2023-05-21T20:10:50.513Z,13.40
2023-05-21T20:13:18.611Z,15.82
2023-05-21T20:15:45.483Z,14.05
2023-05-21T20:18:12.715Z,18.60
2023-05-21T20:20:40.703Z,10.10
2023-05-21T20:23:08.139Z,9.15
2023-05-21T20:25:34.987Z,8.15
2023-05-21T20:28:02.635Z,10.80
2023-05-21T20:30:32.980Z,11.38
2023-05-21T20:33:03.217Z,9.00
2023-05-21T20:35:30.516Z,15.15
2023-05-21T20:37:57.508Z,11.05
2023-05-21T20:40:24.283Z,10.25
2023-05-21T20:42:53.235Z,10.63
2023-05-21T20:45:20.699Z,10.48
2023-05-21T20:47:48.021Z,12.43
2023-05-21T20:50:17.226Z,10.63
2023-05-21T20:52:46.896Z,12.57
2023-05-21T20:55:14.386Z,7.82
2023-05-21T20:57:41.488Z,7.43
2023-05-21T21:00:10.570Z,6.40
2023-05-21T21:02:38.669Z,8.10
2023-05-21T21:05:06.111Z,5.80
2023-05-21T21:07:34.037Z,7.22
2023-05-21T21:10:01.254Z,8.07
2023-05-21T21:12:28.073Z,7.60
2023-05-21T21:14:54.818Z,6.75
2023-05-21T21:17:21.558Z,5.85
2023-05-21T21:19:48.290Z,5.85
2023-05-21T21:22:16.147Z,6.05
2023-05-21T21:24:43.018Z,7.90
2023-05-21T21:27:09.801Z,6.40
2023-05-21T21:29:36.533Z,5.50
2023-05-21T21:32:03.316Z,5.57
2023-05-21T21:34:30.060Z,8.07
2023-05-21T21:36:56.720Z,6.25
2023-05-21T21:39:23.729Z,6.95
2023-05-21T21:41:50.489Z,4.57
2023-05-21T21:44:17.187Z,5.07
2023-05-21T21:46:43.848Z,4.25
2023-05-21T21:49:10.745Z,5.05
2023-05-21T21:51:37.478Z,5.78
2023-05-21T21:54:04.299Z,8.85
2023-05-21T21:56:31.133Z,5.97
2023-05-21T21:58:57.815Z,6.68
2023-05-21T22:01:24.742Z,3.78
2023-05-21T22:03:51.553Z,5.65
2023-05-21T22:06:18.279Z,5.45
2023-05-21T22:08:45.053Z,6.38
2023-05-21T22:11:11.952Z,12.70
2023-05-21T22:13:38.709Z,11.07
2023-05-21T22:16:05.814Z,10.15
2023-05-21T22:18:40.860Z,8.52
2023-05-21T22:21:13.977Z,6.95
2023-05-21T22:23:40.896Z,8.32
2023-05-21T22:26:07.670Z,6.72
2023-05-21T22:28:34.490Z,7.25
2023-05-21T22:31:01.721Z,9.18
2023-05-21T22:33:29.306Z,9.50
2023-05-21T22:35:56.681Z,10.27
2023-05-21T22:38:23.322Z,11.70
2023-05-21T22:40:50.652Z,10.55
2023-05-21T22:43:17.396Z,12.95
2023-05-21T22:45:44.314Z,14.77
2023-05-21T22:48:11.148Z,11.77
2023-05-21T22:50:38.988Z,12.95
2023-05-21T22:53:06.794Z,12.90
2023-05-21T22:55:33.523Z,11.00
2023-05-21T22:58:00.244Z,12.77
2023-05-21T23:00:27.407Z,12.70
2023-05-21T23:02:54.774Z,12.00
2023-05-21T23:05:22.205Z,11.52
2023-05-21T23:07:49.329Z,12.38
2023-05-21T23:10:16.134Z,13.27
2023-05-21T23:12:42.880Z,10.52
2023-05-21T23:15:10.634Z,11.88
2023-05-21T23:17:38.024Z,11.80
2023-05-21T23:20:11.403Z,14.43
2023-05-21T23:22:38.085Z,11.88
2023-05-21T23:25:05.511Z,11.43
2023-05-21T23:27:32.218Z,11.40
2023-05-21T23:29:58.944Z,10.02
2023-05-21T23:32:25.862Z,12.30
2023-05-21T23:34:52.585Z,12.10
2023-05-21T23:37:19.307Z,10.50
2023-05-21T23:39:49.367Z,11.02
2023-05-21T23:42:17.120Z,9.88
2023-05-21T23:44:43.994Z,10.75
2023-05-21T23:47:10.835Z,10.25
2023-05-21T23:49:39.063Z,8.90
2023-05-21T23:52:06.255Z,9.52
2023-05-21T23:54:32.953Z,10.68
2023-05-21T23:56:59.657Z,9.75
2023-05-21T23:59:26.413Z,10.02
